sensor_id;sensor_type;location;lat;lon;timestamp;P1;durP1;ratioP1;P2;durP2;ratioP2
17510;SDS011;8873;48.818;9.422;2023-06-22T06:15:51;8.75;;;5.53;;
17510;SDS011;8873;48.818;9.422;2023-06-22T06:18:21;9.07;;;5.47;;
17510;SDS011;8873;48.818;9.422;2023-06-22T06:20:49;8.43;;;5.28;;
17510;SDS011;8873;48.818;9.422;2023-06-22T06:23:16;7.75;;;5.40;;
17510;SDS011;8873;48.818;9.422;2023-06-22T06:25:44;11.75;;;5.78;;
17510;SDS011;8873;48.818;9.422;2023-06-22T06:28:11;8.00;;;4.78;;
17510;SDS011;8873;48.818;9.422;2023-06-22T06:30:43;8.88;;;5.95;;
17510;SDS011;8873;48.818;9.422;2023-06-22T06:33:12;10.25;;;5.30;;
17510;SDS011;8873;48.818;9.422;2023-06-22T06:35:41;11.32;;;5.88;;
17510;SDS011;8873;48.818;9.422;2023-06-22T06:38:09;7.07;;;4.90;;
17510;SDS011;8873;48.818;9.422;2023-06-22T06:43:26;12.50;;;5.80;;
17510;SDS011;8873;48.818;9.422;2023-06-22T06:45:54;12.10;;;5.38;;
17510;SDS011;8873;48.818;9.422;2023-06-22T06:48:23;10.48;;;5.28;;
17510;SDS011;8873;48.818;9.422;2023-06-22T06:50:50;9.95;;;4.95;;
17510;SDS011;8873;48.818;9.422;2023-06-22T06:53:18;8.52;;;4.90;;
17510;SDS011;8873;48.818;9.422;2023-06-22T06:55:45;7.03;;;4.93;;
17510;SDS011;8873;48.818;9.422;2023-06-22T06:58:19;8.50;;;5.47;;
17510;SDS011;8873;48.818;9.422;2023-06-22T07:00:52;10.75;;;4.80;;
17510;SDS011;8873;48.818;9.422;2023-06-22T07:03:20;9.82;;;4.97;;
17510;SDS011;8873;48.818;9.422;2023-06-22T07:05:49;6.13;;;4.97;;
17510;SDS011;8873;48.818;9.422;2023-06-22T07:08:16;7.80;;;4.28;;
17510;SDS011;8873;48.818;9.422;2023-06-22T07:10:44;10.70;;;5.25;;
17510;SDS011;8873;48.818;9.422;2023-06-22T07:13:11;5.07;;;3.90;;
17510;SDS011;8873;48.818;9.422;2023-06-22T07:15:39;8.32;;;4.30;;
17510;SDS011;8873;48.818;9.422;2023-06-22T07:18:06;6.25;;;4.05;;
17510;SDS011;8873;48.818;9.422;2023-06-22T07:20:34;4.82;;;3.75;;
17510;SDS011;8873;48.818;9.422;2023-06-22T07:23:03;5.60;;;4.28;;
17510;SDS011;8873;48.818;9.422;2023-06-22T07:25:33;7.32;;;4.22;;
17510;SDS011;8873;48.818;9.422;2023-06-22T07:28:01;8.73;;;4.50;;
17510;SDS011;8873;48.818;9.422;2023-06-22T07:30:29;4.35;;;3.50;;
17510;SDS011;8873;48.818;9.422;2023-06-22T07:32:58;5.70;;;3.80;;
17510;SDS011;8873;48.818;9.422;2023-06-22T07:35:30;6.57;;;4.32;;
17510;SDS011;8873;48.818;9.422;2023-06-22T07:37:57;8.85;;;3.90;;
17510;SDS011;8873;48.818;9.422;2023-06-22T07:40:32;5.57;;;3.75;;
17510;SDS011;8873;48.818;9.422;2023-06-22T07:43:00;5.88;;;3.88;;
17510;SDS011;8873;48.818;9.422;2023-06-22T07:45:28;5.95;;;3.70;;
17510;SDS011;8873;48.818;9.422;2023-06-22T07:47:55;8.95;;;3.53;;
17510;SDS011;8873;48.818;9.422;2023-06-22T07:50:23;6.75;;;3.58;;
17510;SDS011;8873;48.818;9.422;2023-06-22T07:52:50;8.60;;;4.47;;
17510;SDS011;8873;48.818;9.422;2023-06-22T07:55:18;4.95;;;3.55;;
17510;SDS011;8873;48.818;9.422;2023-06-22T07:57:48;10.02;;;3.55;;
17510;SDS011;8873;48.818;9.422;2023-06-22T08:00:18;4.10;;;3.33;;
17510;SDS011;8873;48.818;9.422;2023-06-22T08:02:53;7.60;;;3.70;;
17510;SDS011;8873;48.818;9.422;2023-06-22T08:05:21;7.03;;;3.50;;
17510;SDS011;8873;48.818;9.422;2023-06-22T08:07:55;5.97;;;3.92;;
17510;SDS011;8873;48.818;9.422;2023-06-22T08:10:22;6.10;;;3.80;;
17510;SDS011;8873;48.818;9.422;2023-06-22T08:12:53;8.45;;;4.18;;
17510;SDS011;8873;48.818;9.422;2023-06-22T08:15:21;6.97;;;3.58;;
17510;SDS011;8873;48.818;9.422;2023-06-22T08:17:49;4.85;;;3.47;;
17510;SDS011;8873;48.818;9.422;2023-06-22T08:20:18;8.52;;;3.42;;
17510;SDS011;8873;48.818;9.422;2023-06-22T08:22:46;5.72;;;3.80;;
17510;SDS011;8873;48.818;9.422;2023-06-22T08:25:13;5.68;;;3.83;;
17510;SDS011;8873;48.818;9.422;2023-06-22T08:27:44;4.38;;;3.67;;
17510;SDS011;8873;48.818;9.422;2023-06-22T08:30:13;11.90;;;4.25;;
17510;SDS011;8873;48.818;9.422;2023-06-22T08:32:41;12.27;;;3.80;;
17510;SDS011;8873;48.818;9.422;2023-06-22T08:35:08;6.20;;;4.00;;
17510;SDS011;8873;48.818;9.422;2023-06-22T08:37:36;5.68;;;3.75;;
17510;SDS011;8873;48.818;9.422;2023-06-22T08:40:06;5.28;;;3.88;;
17510;SDS011;8873;48.818;9.422;2023-06-22T08:42:35;8.40;;;3.67;;
17510;SDS011;8873;48.818;9.422;2023-06-22T08:45:04;5.63;;;3.15;;
17510;SDS011;8873;48.818;9.422;2023-06-22T08:47:33;7.65;;;3.83;;
17510;SDS011;8873;48.818;9.422;2023-06-22T08:50:01;5.40;;;3.60;;
17510;SDS011;8873;48.818;9.422;2023-06-22T08:52:30;6.10;;;3.75;;
17510;SDS011;8873;48.818;9.422;2023-06-22T08:54:57;7.22;;;3.53;;
17510;SDS011;8873;48.818;9.422;2023-06-22T08:57:25;6.70;;;3.70;;
17510;SDS011;8873;48.818;9.422;2023-06-22T08:59:53;6.82;;;4.03;;
17510;SDS011;8873;48.818;9.422;2023-06-22T09:02:24;7.20;;;4.25;;
17510;SDS011;8873;48.818;9.422;2023-06-22T09:04:53;7.20;;;3.95;;
17510;SDS011;8873;48.818;9.422;2023-06-22T09:07:22;6.95;;;4.03;;
17510;SDS011;8873;48.818;9.422;2023-06-22T09:09:51;7.35;;;3.60;;
17510;SDS011;8873;48.818;9.422;2023-06-22T09:12:20;6.05;;;3.47;;
17510;SDS011;8873;48.818;9.422;2023-06-22T09:14:52;6.30;;;3.72;;
17510;SDS011;8873;48.818;9.422;2023-06-22T09:17:19;7.32;;;3.78;;
17510;SDS011;8873;48.818;9.422;2023-06-22T09:19:47;7.65;;;4.47;;
17510;SDS011;8873;48.818;9.422;2023-06-22T09:22:16;5.70;;;3.90;;
17510;SDS011;8873;48.818;9.422;2023-06-22T09:24:44;5.82;;;3.92;;
17510;SDS011;8873;48.818;9.422;2023-06-22T09:27:11;8.32;;;3.67;;
17510;SDS011;8873;48.818;9.422;2023-06-22T09:29:39;7.53;;;3.92;;
17510;SDS011;8873;48.818;9.422;2023-06-22T09:32:07;10.85;;;3.45;;
17510;SDS011;8873;48.818;9.422;2023-06-22T09:37:28;5.35;;;3.80;;
17510;SDS011;8873;48.818;9.422;2023-06-22T09:39:56;8.27;;;3.88;;
17510;SDS011;8873;48.818;9.422;2023-06-22T09:42:23;11.32;;;3.72;;
17510;SDS011;8873;48.818;9.422;2023-06-22T09:45:18;7.05;;;3.92;;
17510;SDS011;8873;48.818;9.422;2023-06-22T09:47:46;7.72;;;3.80;;
17510;SDS011;8873;48.818;9.422;2023-06-22T09:50:14;9.93;;;3.85;;
17510;SDS011;8873;48.818;9.422;2023-06-22T09:52:43;7.72;;;4.10;;
17510;SDS011;8873;48.818;9.422;2023-06-22T09:55:14;7.43;;;3.63;;
17510;SDS011;8873;48.818;9.422;2023-06-22T09:57:42;6.20;;;3.60;;
17510;SDS011;8873;48.818;9.422;2023-06-22T10:00:10;7.10;;;4.50;;
17510;SDS011;8873;48.818;9.422;2023-06-22T10:02:39;5.15;;;3.55;;
17510;SDS011;8873;48.818;9.422;2023-06-22T10:05:07;5.32;;;3.72;;
17510;SDS011;8873;48.818;9.422;2023-06-22T10:07:35;5.28;;;3.80;;
17510;SDS011;8873;48.818;9.422;2023-06-22T10:10:08;6.75;;;4.53;;
17510;SDS011;8873;48.818;9.422;2023-06-22T10:12:35;7.90;;;4.05;;
17510;SDS011;8873;48.818;9.422;2023-06-22T10:15:03;6.18;;;3.85;;
17510;SDS011;8873;48.818;9.422;2023-06-22T10:17:31;7.72;;;4.38;;
17510;SDS011;8873;48.818;9.422;2023-06-22T10:20:00;7.85;;;3.97;;
17510;SDS011;8873;48.818;9.422;2023-06-22T10:22:32;10.68;;;4.55;;
17510;SDS011;8873;48.818;9.422;2023-06-22T10:24:59;7.35;;;4.10;;
17510;SDS011;8873;48.818;9.422;2023-06-22T10:27:28;9.02;;;4.53;;
17510;SDS011;8873;48.818;9.422;2023-06-22T10:29:56;12.15;;;4.28;;
17510;SDS011;8873;48.818;9.422;2023-06-22T10:32:23;6.40;;;4.32;;
17510;SDS011;8873;48.818;9.422;2023-06-22T10:34:51;7.28;;;3.50;;
17510;SDS011;8873;48.818;9.422;2023-06-22T10:37:18;10.52;;;4.55;;
17510;SDS011;8873;48.818;9.422;2023-06-22T10:39:46;8.07;;;4.25;;
17510;SDS011;8873;48.818;9.422;2023-06-22T10:42:13;8.50;;;4.30;;
17510;SDS011;8873;48.818;9.422;2023-06-22T10:44:42;7.60;;;4.30;;
17510;SDS011;8873;48.818;9.422;2023-06-22T10:47:11;11.02;;;4.18;;
17510;SDS011;8873;48.818;9.422;2023-06-22T10:49:39;8.02;;;3.92;;
17510;SDS011;8873;48.818;9.422;2023-06-22T10:52:08;9.43;;;4.70;;
17510;SDS011;8873;48.818;9.422;2023-06-22T10:54:36;7.88;;;4.05;;
17510;SDS011;8873;48.818;9.422;2023-06-22T10:57:04;9.02;;;4.05;;
17510;SDS011;8873;48.818;9.422;2023-06-22T10:59:31;9.43;;;4.50;;
17510;SDS011;8873;48.818;9.422;2023-06-22T11:02:00;6.70;;;3.95;;
17510;SDS011;8873;48.818;9.422;2023-06-22T11:04:30;9.35;;;4.82;;
17510;SDS011;8873;48.818;9.422;2023-06-22T11:06:58;11.35;;;4.38;;
17510;SDS011;8873;48.818;9.422;2023-06-22T11:09:25;8.18;;;4.30;;
17510;SDS011;8873;48.818;9.422;2023-06-22T11:11:55;7.43;;;3.65;;
17510;SDS011;8873;48.818;9.422;2023-06-22T11:14:25;8.57;;;4.22;;
17510;SDS011;8873;48.818;9.422;2023-06-22T11:16:53;7.47;;;3.92;;
17510;SDS011;8873;48.818;9.422;2023-06-22T11:19:23;10.05;;;4.10;;
17510;SDS011;8873;48.818;9.422;2023-06-22T11:21:51;9.90;;;4.10;;
17510;SDS011;8873;48.818;9.422;2023-06-22T11:24:18;13.88;;;4.10;;
17510;SDS011;8873;48.818;9.422;2023-06-22T11:26:46;8.30;;;3.83;;
17510;SDS011;8873;48.818;9.422;2023-06-22T11:29:14;10.55;;;3.90;;
17510;SDS011;8873;48.818;9.422;2023-06-22T11:31:57;7.82;;;4.57;;
17510;SDS011;8873;48.818;9.422;2023-06-22T11:34:29;8.90;;;4.20;;
17510;SDS011;8873;48.818;9.422;2023-06-22T11:36:56;7.95;;;4.25;;
17510;SDS011;8873;48.818;9.422;2023-06-22T11:39:24;12.80;;;4.53;;
17510;SDS011;8873;48.818;9.422;2023-06-22T11:42:08;8.13;;;3.92;;
17510;SDS011;8873;48.818;9.422;2023-06-22T11:44:35;7.07;;;4.30;;
17510;SDS011;8873;48.818;9.422;2023-06-22T11:47:03;10.48;;;4.45;;
17510;SDS011;8873;48.818;9.422;2023-06-22T11:49:32;7.50;;;4.40;;
17510;SDS011;8873;48.818;9.422;2023-06-22T11:52:00;9.13;;;3.95;;
17510;SDS011;8873;48.818;9.422;2023-06-22T11:54:27;9.13;;;4.45;;
17510;SDS011;8873;48.818;9.422;2023-06-22T11:56:55;7.57;;;3.72;;
17510;SDS011;8873;48.818;9.422;2023-06-22T11:59:22;7.70;;;4.32;;
17510;SDS011;8873;48.818;9.422;2023-06-22T12:01:52;8.10;;;4.80;;
17510;SDS011;8873;48.818;9.422;2023-06-22T12:04:20;9.27;;;4.63;;
17510;SDS011;8873;48.818;9.422;2023-06-22T12:06:48;6.65;;;4.45;;
17510;SDS011;8873;48.818;9.422;2023-06-22T12:09:16;8.68;;;4.65;;
17510;SDS011;8873;48.818;9.422;2023-06-22T12:11:44;10.82;;;4.45;;
17510;SDS011;8873;48.818;9.422;2023-06-22T12:14:11;10.40;;;4.30;;
17510;SDS011;8873;48.818;9.422;2023-06-22T12:16:39;11.30;;;4.45;;
17510;SDS011;8873;48.818;9.422;2023-06-22T12:19:06;10.68;;;4.68;;
17510;SDS011;8873;48.818;9.422;2023-06-22T12:21:34;10.23;;;4.88;;
17510;SDS011;8873;48.818;9.422;2023-06-22T12:24:03;8.35;;;4.28;;
17510;SDS011;8873;48.818;9.422;2023-06-22T12:26:32;7.85;;;4.65;;
17510;SDS011;8873;48.818;9.422;2023-06-22T12:29:00;10.73;;;5.00;;
17510;SDS011;8873;48.818;9.422;2023-06-22T12:31:27;10.20;;;4.50;;
17510;SDS011;8873;48.818;9.422;2023-06-22T12:33:55;9.68;;;4.40;;
17510;SDS011;8873;48.818;9.422;2023-06-22T12:36:23;10.95;;;5.15;;
17510;SDS011;8873;48.818;9.422;2023-06-22T12:38:51;9.23;;;4.97;;
17510;SDS011;8873;48.818;9.422;2023-06-22T12:41:22;9.18;;;4.63;;
17510;SDS011;8873;48.818;9.422;2023-06-22T12:43:50;10.60;;;5.13;;
17510;SDS011;8873;48.818;9.422;2023-06-22T12:46:18;6.65;;;4.35;;
17510;SDS011;8873;48.818;9.422;2023-06-22T12:49:09;7.68;;;4.20;;
17510;SDS011;8873;48.818;9.422;2023-06-22T12:51:39;7.45;;;4.45;;
17510;SDS011;8873;48.818;9.422;2023-06-22T12:54:07;11.88;;;4.82;;
17510;SDS011;8873;48.818;9.422;2023-06-22T12:56:36;6.32;;;4.20;;
17510;SDS011;8873;48.818;9.422;2023-06-22T12:59:04;7.30;;;4.90;;
17510;SDS011;8873;48.818;9.422;2023-06-22T13:01:32;10.60;;;5.35;;
17510;SDS011;8873;48.818;9.422;2023-06-22T13:04:07;10.25;;;4.70;;
17510;SDS011;8873;48.818;9.422;2023-06-22T13:06:41;8.80;;;4.97;;
17510;SDS011;8873;48.818;9.422;2023-06-22T13:09:09;9.10;;;4.60;;
17510;SDS011;8873;48.818;9.422;2023-06-22T13:11:47;6.13;;;4.45;;
17510;SDS011;8873;48.818;9.422;2023-06-22T13:14:14;13.80;;;5.70;;
17510;SDS011;8873;48.818;9.422;2023-06-22T13:16:43;11.90;;;5.35;;
17510;SDS011;8873;48.818;9.422;2023-06-22T13:19:10;12.10;;;5.22;;
17510;SDS011;8873;48.818;9.422;2023-06-22T13:21:38;7.57;;;4.75;;
17510;SDS011;8873;48.818;9.422;2023-06-22T13:24:06;10.32;;;4.85;;
17510;SDS011;8873;48.818;9.422;2023-06-22T13:26:33;12.45;;;5.05;;
17510;SDS011;8873;48.818;9.422;2023-06-22T13:29:02;9.50;;;4.80;;
17510;SDS011;8873;48.818;9.422;2023-06-22T13:31:30;12.15;;;5.82;;
17510;SDS011;8873;48.818;9.422;2023-06-22T13:33:57;14.27;;;4.60;;
17510;SDS011;8873;48.818;9.422;2023-06-22T13:36:25;9.73;;;4.50;;
17510;SDS011;8873;48.818;9.422;2023-06-22T13:38:52;11.85;;;4.82;;
17510;SDS011;8873;48.818;9.422;2023-06-22T13:41:20;10.45;;;5.47;;
17510;SDS011;8873;48.818;9.422;2023-06-22T13:43:50;15.18;;;5.68;;
17510;SDS011;8873;48.818;9.422;2023-06-22T13:46:19;8.00;;;5.10;;
17510;SDS011;8873;48.818;9.422;2023-06-22T13:48:47;9.35;;;4.95;;
17510;SDS011;8873;48.818;9.422;2023-06-22T13:51:14;10.85;;;4.68;;
17510;SDS011;8873;48.818;9.422;2023-06-22T13:53:42;11.75;;;5.32;;
17510;SDS011;8873;48.818;9.422;2023-06-22T13:56:09;7.53;;;4.65;;
17510;SDS011;8873;48.818;9.422;2023-06-22T13:58:39;9.57;;;5.63;;
17510;SDS011;8873;48.818;9.422;2023-06-22T14:01:06;9.90;;;4.80;;
17510;SDS011;8873;48.818;9.422;2023-06-22T14:03:43;9.55;;;5.47;;
17510;SDS011;8873;48.818;9.422;2023-06-22T14:06:13;10.77;;;4.35;;
17510;SDS011;8873;48.818;9.422;2023-06-22T14:08:43;17.50;;;5.15;;
17510;SDS011;8873;48.818;9.422;2023-06-22T14:11:11;9.85;;;5.28;;
17510;SDS011;8873;48.818;9.422;2023-06-22T14:13:38;14.98;;;5.25;;
17510;SDS011;8873;48.818;9.422;2023-06-22T14:16:08;12.90;;;4.85;;
17510;SDS011;8873;48.818;9.422;2023-06-22T14:18:36;6.72;;;4.82;;
17510;SDS011;8873;48.818;9.422;2023-06-22T14:21:05;8.70;;;4.50;;
17510;SDS011;8873;48.818;9.422;2023-06-22T14:23:32;16.63;;;5.13;;
17510;SDS011;8873;48.818;9.422;2023-06-22T14:26:00;10.45;;;5.00;;
17510;SDS011;8873;48.818;9.422;2023-06-22T14:28:28;9.57;;;4.70;;
17510;SDS011;8873;48.818;9.422;2023-06-22T14:30:55;13.88;;;4.40;;
17510;SDS011;8873;48.818;9.422;2023-06-22T14:33:27;13.45;;;5.03;;
17510;SDS011;8873;48.818;9.422;2023-06-22T14:35:56;10.98;;;4.65;;
17510;SDS011;8873;48.818;9.422;2023-06-22T14:38:25;12.45;;;4.38;;
17510;SDS011;8873;48.818;9.422;2023-06-22T14:40:53;11.27;;;5.05;;
17510;SDS011;8873;48.818;9.422;2023-06-22T14:43:42;8.88;;;4.07;;
17510;SDS011;8873;48.818;9.422;2023-06-22T14:46:12;8.60;;;3.90;;
17510;SDS011;8873;48.818;9.422;2023-06-22T14:48:40;15.10;;;4.20;;
17510;SDS011;8873;48.818;9.422;2023-06-22T14:51:08;14.50;;;4.70;;
17510;SDS011;8873;48.818;9.422;2023-06-22T14:53:42;7.82;;;3.88;;
17510;SDS011;8873;48.818;9.422;2023-06-22T14:56:09;7.85;;;3.85;;
17510;SDS011;8873;48.818;9.422;2023-06-22T14:58:42;12.13;;;4.05;;
17510;SDS011;8873;48.818;9.422;2023-06-22T15:01:12;7.57;;;3.50;;
17510;SDS011;8873;48.818;9.422;2023-06-22T15:03:40;11.63;;;4.68;;
17510;SDS011;8873;48.818;9.422;2023-06-22T15:06:08;5.13;;;3.85;;
17510;SDS011;8873;48.818;9.422;2023-06-22T15:08:36;11.40;;;4.03;;
17510;SDS011;8873;48.818;9.422;2023-06-22T15:11:08;7.20;;;4.20;;
17510;SDS011;8873;48.818;9.422;2023-06-22T15:13:40;11.20;;;3.35;;
17510;SDS011;8873;48.818;9.422;2023-06-22T15:16:08;7.93;;;3.67;;
17510;SDS011;8873;48.818;9.422;2023-06-22T15:18:36;7.22;;;3.60;;
17510;SDS011;8873;48.818;9.422;2023-06-22T15:21:04;8.63;;;3.47;;
17510;SDS011;8873;48.818;9.422;2023-06-22T15:23:32;12.73;;;3.63;;
17510;SDS011;8873;48.818;9.422;2023-06-22T15:26:00;7.50;;;3.55;;
17510;SDS011;8873;48.818;9.422;2023-06-22T15:28:44;6.90;;;3.25;;
17510;SDS011;8873;48.818;9.422;2023-06-22T15:31:30;10.70;;;4.00;;
17510;SDS011;8873;48.818;9.422;2023-06-22T15:34:00;11.32;;;3.40;;
17510;SDS011;8873;48.818;9.422;2023-06-22T15:36:29;7.97;;;3.20;;
17510;SDS011;8873;48.818;9.422;2023-06-22T15:38:57;11.50;;;3.45;;
17510;SDS011;8873;48.818;9.422;2023-06-22T15:41:24;12.85;;;3.70;;
17510;SDS011;8873;48.818;9.422;2023-06-22T15:43:55;6.20;;;3.13;;
17510;SDS011;8873;48.818;9.422;2023-06-22T15:46:23;6.10;;;2.95;;
17510;SDS011;8873;48.818;9.422;2023-06-22T15:48:50;8.30;;;2.83;;
17510;SDS011;8873;48.818;9.422;2023-06-22T15:51:23;6.85;;;3.08;;
17510;SDS011;8873;48.818;9.422;2023-06-22T15:53:51;6.97;;;2.80;;
17510;SDS011;8873;48.818;9.422;2023-06-22T15:56:18;7.05;;;2.80;;
17510;SDS011;8873;48.818;9.422;2023-06-22T15:58:46;10.85;;;2.83;;
17510;SDS011;8873;48.818;9.422;2023-06-22T16:01:15;9.48;;;3.33;;
17510;SDS011;8873;48.818;9.422;2023-06-22T16:03:43;5.68;;;2.85;;
17510;SDS011;8873;48.818;9.422;2023-06-22T16:06:10;9.77;;;2.72;;
17510;SDS011;8873;48.818;9.422;2023-06-22T16:08:38;8.57;;;2.85;;
17510;SDS011;8873;48.818;9.422;2023-06-22T16:11:05;5.05;;;2.92;;
17510;SDS011;8873;48.818;9.422;2023-06-22T16:13:33;10.95;;;2.88;;
17510;SDS011;8873;48.818;9.422;2023-06-22T16:16:01;10.35;;;2.97;;
17510;SDS011;8873;48.818;9.422;2023-06-22T16:18:30;12.73;;;3.53;;
17510;SDS011;8873;48.818;9.422;2023-06-22T16:20:57;7.78;;;3.40;;
17510;SDS011;8873;48.818;9.422;2023-06-22T16:23:25;11.27;;;3.30;;
17510;SDS011;8873;48.818;9.422;2023-06-22T16:25:52;7.03;;;3.13;;
17510;SDS011;8873;48.818;9.422;2023-06-22T16:28:20;10.70;;;3.55;;
17510;SDS011;8873;48.818;9.422;2023-06-22T16:30:47;6.72;;;2.50;;
17510;SDS011;8873;48.818;9.422;2023-06-22T16:33:18;11.48;;;3.25;;
17510;SDS011;8873;48.818;9.422;2023-06-22T16:35:47;9.10;;;3.10;;
17510;SDS011;8873;48.818;9.422;2023-06-22T16:38:15;8.25;;;3.03;;
17510;SDS011;8873;48.818;9.422;2023-06-22T16:40:42;8.93;;;3.10;;
17510;SDS011;8873;48.818;9.422;2023-06-22T16:43:10;8.48;;;2.80;;
17510;SDS011;8873;48.818;9.422;2023-06-22T16:45:37;10.27;;;3.33;;
17510;SDS011;8873;48.818;9.422;2023-06-22T16:48:05;8.65;;;3.10;;
17510;SDS011;8873;48.818;9.422;2023-06-22T16:50:33;11.93;;;3.20;;
17510;SDS011;8873;48.818;9.422;2023-06-22T16:53:01;5.80;;;3.03;;
17510;SDS011;8873;48.818;9.422;2023-06-22T16:55:30;6.80;;;2.95;;
17510;SDS011;8873;48.818;9.422;2023-06-22T16:57:58;6.75;;;3.17;;
17510;SDS011;8873;48.818;9.422;2023-06-22T17:00:27;6.72;;;3.30;;
17510;SDS011;8873;48.818;9.422;2023-06-22T17:02:56;6.93;;;3.72;;
17510;SDS011;8873;48.818;9.422;2023-06-22T17:05:24;7.03;;;3.17;;
17510;SDS011;8873;48.818;9.422;2023-06-22T17:07:53;5.03;;;2.58;;
17510;SDS011;8873;48.818;9.422;2023-06-22T17:10:25;6.80;;;2.78;;
17510;SDS011;8873;48.818;9.422;2023-06-22T17:12:54;4.65;;;2.35;;
17510;SDS011;8873;48.818;9.422;2023-06-22T17:15:22;6.82;;;2.55;;
17510;SDS011;8873;48.818;9.422;2023-06-22T17:17:52;6.60;;;2.40;;
17510;SDS011;8873;48.818;9.422;2023-06-22T17:20:20;6.55;;;2.70;;
17510;SDS011;8873;48.818;9.422;2023-06-22T17:22:51;5.30;;;2.53;;
17510;SDS011;8873;48.818;9.422;2023-06-22T17:25:20;5.47;;;2.70;;
17510;SDS011;8873;48.818;9.422;2023-06-22T17:27:50;3.85;;;2.13;;
17510;SDS011;8873;48.818;9.422;2023-06-22T17:30:18;7.38;;;2.80;;
17510;SDS011;8873;48.818;9.422;2023-06-22T17:32:47;7.88;;;2.50;;
17510;SDS011;8873;48.818;9.422;2023-06-22T17:35:15;5.60;;;2.70;;
17510;SDS011;8873;48.818;9.422;2023-06-22T17:37:47;9.07;;;3.08;;
17510;SDS011;8873;48.818;9.422;2023-06-22T17:40:15;6.75;;;2.65;;
17510;SDS011;8873;48.818;9.422;2023-06-22T17:42:43;7.55;;;2.90;;
17510;SDS011;8873;48.818;9.422;2023-06-22T17:45:20;9.63;;;3.17;;
17510;SDS011;8873;48.818;9.422;2023-06-22T17:47:50;8.43;;;2.70;;
17510;SDS011;8873;48.818;9.422;2023-06-22T17:50:21;7.18;;;2.60;;
17510;SDS011;8873;48.818;9.422;2023-06-22T17:52:49;7.35;;;2.80;;
17510;SDS011;8873;48.818;9.422;2023-06-22T17:55:19;7.50;;;2.50;;
17510;SDS011;8873;48.818;9.422;2023-06-22T17:57:48;4.85;;;2.70;;
17510;SDS011;8873;48.818;9.422;2023-06-22T18:00:18;5.85;;;2.60;;
17510;SDS011;8873;48.818;9.422;2023-06-22T18:02:46;5.32;;;2.10;;
17510;SDS011;8873;48.818;9.422;2023-06-22T18:05:17;13.25;;;2.65;;
17510;SDS011;8873;48.818;9.422;2023-06-22T18:07:45;4.40;;;2.78;;
17510;SDS011;8873;48.818;9.422;2023-06-22T18:10:13;5.18;;;2.72;;
17510;SDS011;8873;48.818;9.422;2023-06-22T18:12:41;6.45;;;2.97;;
17510;SDS011;8873;48.818;9.422;2023-06-22T18:15:11;6.72;;;2.88;;
17510;SDS011;8873;48.818;9.422;2023-06-22T18:17:41;10.52;;;2.55;;
17510;SDS011;8873;48.818;9.422;2023-06-22T18:20:09;5.50;;;2.33;;
17510;SDS011;8873;48.818;9.422;2023-06-22T18:22:37;7.28;;;2.30;;
17510;SDS011;8873;48.818;9.422;2023-06-22T18:25:06;8.18;;;2.40;;
17510;SDS011;8873;48.818;9.422;2023-06-22T18:27:35;3.13;;;2.00;;
17510;SDS011;8873;48.818;9.422;2023-06-22T18:30:03;5.53;;;2.13;;
17510;SDS011;8873;48.818;9.422;2023-06-22T18:32:31;8.60;;;2.10;;
17510;SDS011;8873;48.818;9.422;2023-06-22T18:35:00;12.10;;;2.72;;
17510;SDS011;8873;48.818;9.422;2023-06-22T18:37:30;4.40;;;2.25;;
17510;SDS011;8873;48.818;9.422;2023-06-22T18:39:59;12.60;;;3.30;;
17510;SDS011;8873;48.818;9.422;2023-06-22T18:42:28;4.47;;;2.50;;
17510;SDS011;8873;48.818;9.422;2023-06-22T18:44:56;6.32;;;2.45;;
17510;SDS011;8873;48.818;9.422;2023-06-22T18:47:27;6.72;;;2.50;;
17510;SDS011;8873;48.818;9.422;2023-06-22T18:50:04;3.88;;;2.15;;
17510;SDS011;8873;48.818;9.422;2023-06-22T18:52:33;5.45;;;2.60;;
17510;SDS011;8873;48.818;9.422;2023-06-22T18:55:01;5.07;;;2.33;;
17510;SDS011;8873;48.818;9.422;2023-06-22T18:57:31;6.75;;;2.60;;
17510;SDS011;8873;48.818;9.422;2023-06-22T18:59:59;5.25;;;2.35;;
17510;SDS011;8873;48.818;9.422;2023-06-22T19:02:34;3.05;;;2.15;;
17510;SDS011;8873;48.818;9.422;2023-06-22T19:05:07;6.82;;;2.30;;
17510;SDS011;8873;48.818;9.422;2023-06-22T19:10:24;4.13;;;2.67;;
17510;SDS011;8873;48.818;9.422;2023-06-22T19:12:52;3.35;;;2.10;;
17510;SDS011;8873;48.818;9.422;2023-06-22T19:15:21;6.65;;;2.10;;
17510;SDS011;8873;48.818;9.422;2023-06-22T19:17:49;2.95;;;2.40;;
17510;SDS011;8873;48.818;9.422;2023-06-22T19:20:19;6.38;;;2.78;;
17510;SDS011;8873;48.818;9.422;2023-06-22T19:22:47;3.17;;;2.08;;
17510;SDS011;8873;48.818;9.422;2023-06-22T19:25:20;2.42;;;1.83;;
17510;SDS011;8873;48.818;9.422;2023-06-22T19:27:50;3.20;;;2.13;;
17510;SDS011;8873;48.818;9.422;2023-06-22T19:30:21;5.53;;;2.15;;
17510;SDS011;8873;48.818;9.422;2023-06-22T19:32:59;9.57;;;2.40;;
17510;SDS011;8873;48.818;9.422;2023-06-22T19:35:30;5.63;;;2.13;;
17510;SDS011;8873;48.818;9.422;2023-06-22T19:37:59;4.20;;;2.17;;
17510;SDS011;8873;48.818;9.422;2023-06-22T19:40:27;4.05;;;2.33;;
17510;SDS011;8873;48.818;9.422;2023-06-22T19:42:55;5.15;;;2.20;;
17510;SDS011;8873;48.818;9.422;2023-06-22T19:45:27;5.45;;;2.67;;
17510;SDS011;8873;48.818;9.422;2023-06-22T19:47:56;7.25;;;2.60;;
17510;SDS011;8873;48.818;9.422;2023-06-22T19:50:23;7.97;;;2.53;;
17510;SDS011;8873;48.818;9.422;2023-06-22T19:52:53;8.52;;;2.55;;
17510;SDS011;8873;48.818;9.422;2023-06-22T19:55:23;4.60;;;2.13;;
17510;SDS011;8873;48.818;9.422;2023-06-22T19:57:51;8.77;;;2.40;;
17510;SDS011;8873;48.818;9.422;2023-06-22T20:00:20;3.20;;;2.40;;
17510;SDS011;8873;48.818;9.422;2023-06-22T20:02:52;6.10;;;2.72;;
17510;SDS011;8873;48.818;9.422;2023-06-22T20:05:20;6.22;;;2.67;;
17510;SDS011;8873;48.818;9.422;2023-06-22T20:07:48;5.32;;;2.75;;
17510;SDS011;8873;48.818;9.422;2023-06-22T20:10:19;3.58;;;2.50;;
17510;SDS011;8873;48.818;9.422;2023-06-22T20:12:47;4.45;;;3.10;;
17510;SDS011;8873;48.818;9.422;2023-06-22T20:15:25;2.90;;;2.42;;
17510;SDS011;8873;48.818;9.422;2023-06-22T20:17:53;6.40;;;2.35;;
17510;SDS011;8873;48.818;9.422;2023-06-22T20:20:21;4.53;;;2.53;;
17510;SDS011;8873;48.818;9.422;2023-06-22T20:22:49;4.78;;;2.97;;
17510;SDS011;8873;48.818;9.422;2023-06-22T20:25:19;10.15;;;2.97;;
17510;SDS011;8873;48.818;9.422;2023-06-22T20:27:50;4.00;;;2.70;;
17510;SDS011;8873;48.818;9.422;2023-06-22T20:30:18;7.10;;;2.45;;
17510;SDS011;8873;48.818;9.422;2023-06-22T20:32:50;9.70;;;2.72;;
17510;SDS011;8873;48.818;9.422;2023-06-22T20:35:18;7.35;;;2.60;;
17510;SDS011;8873;48.818;9.422;2023-06-22T20:37:47;7.70;;;2.67;;
17510;SDS011;8873;48.818;9.422;2023-06-22T20:40:15;6.22;;;2.30;;
17510;SDS011;8873;48.818;9.422;2023-06-22T20:42:44;4.25;;;2.80;;
17510;SDS011;8873;48.818;9.422;2023-06-22T20:45:11;6.32;;;2.53;;
17510;SDS011;8873;48.818;9.422;2023-06-22T20:47:39;3.92;;;2.75;;
17510;SDS011;8873;48.818;9.422;2023-06-22T20:50:07;7.55;;;3.30;;
17510;SDS011;8873;48.818;9.422;2023-06-22T20:52:35;7.93;;;2.70;;
17510;SDS011;8873;48.818;9.422;2023-06-22T20:55:03;6.18;;;2.80;;
17510;SDS011;8873;48.818;9.422;2023-06-22T20:57:31;6.03;;;2.78;;
17510;SDS011;8873;48.818;9.422;2023-06-22T21:00:01;8.40;;;3.00;;
17510;SDS011;8873;48.818;9.422;2023-06-22T21:02:32;5.15;;;2.97;;
17510;SDS011;8873;48.818;9.422;2023-06-22T21:05:00;6.53;;;2.67;;
17510;SDS011;8873;48.818;9.422;2023-06-22T21:07:28;8.98;;;3.30;;
17510;SDS011;8873;48.818;9.422;2023-06-22T21:09:56;5.60;;;3.05;;
17510;SDS011;8873;48.818;9.422;2023-06-22T21:12:23;9.70;;;3.33;;
17510;SDS011;8873;48.818;9.422;2023-06-22T21:14:51;7.10;;;3.30;;
17510;SDS011;8873;48.818;9.422;2023-06-22T21:17:20;3.28;;;2.83;;
17510;SDS011;8873;48.818;9.422;2023-06-22T21:19:50;5.13;;;2.60;;
17510;SDS011;8873;48.818;9.422;2023-06-22T21:22:18;8.82;;;2.53;;
17510;SDS011;8873;48.818;9.422;2023-06-22T21:25:01;3.08;;;2.53;;
17510;SDS011;8873;48.818;9.422;2023-06-22T21:27:29;9.20;;;2.97;;
17510;SDS011;8873;48.818;9.422;2023-06-22T21:29:57;4.85;;;2.50;;
17510;SDS011;8873;48.818;9.422;2023-06-22T21:32:26;4.15;;;2.30;;